Chippewa County International Airport
KCIU : now visible

Airfield :











YOU CAN JOIN US ON...

 
LOGIN :

Register | Disclaimer

   EN    FR    IT 

 









Legend :    VFR   Marginal VFR   IFR   Intensive IFR   Very Intensive IFR
Visi :
Ceiling :
>= 8 km
>= 3000ft
5 to 8 km
1000 to 3000 ft
1500m to 5 km
500 to 1000 ft
800 to 1500m
200 to 500 ft
< 800m
< 200 ft
Symbols :   Thunderstorms  Fog  Heavy snow  Heavy precipitations  Wind > 20 kt






- Airport Elevation : 800 ft
- IATA code : CIU


KCIU - Chippewa County International

CURRENT METAR :
  • 311156Z AUTO 16009KT 10SM OVC029 M02/M04 A3029 RMK AO2 SLP267 T10171039 11017 21050 56010 FZRANO

EXPIRED METARs :
  • 311141Z AUTO 16008KT 10SM BKN029 M02/M04 A3029 RMK AO2 FZRANO
  • 311056Z AUTO 15009KT 10SM CLR M03/M05 A3030 RMK AO2 SLP269 T10331050 FZRANO
  • 310956Z AUTO 15008KT 10SM CLR M05/M06 A3030 RMK AO2 SLP272 T10501061 FZRANO

TAF N/A
KZMP FIR / North America



MET'MAP, your aeronautical weather chart ! - Copyright ORBIFLY December 2007 - Disclaimer

ORBIFLY MET'MAP TEAM :

Programming & Development : Alexandra Zaïnal
Concept & original design : Baudouin d'Aumeries
Assistance for programming : Marc-Olivier Méhu
Technical & hardware support : Manuel Goepfert

Contact : metmap@orbifly.com




SOURCES & CREDITS :

   NOAA       Earth
Advisory